createdAt,value
2023-03-12T00:00:24.282Z,0.50
2023-03-12T00:02:56.751Z,0.40
2023-03-12T00:05:29.430Z,0.50
2023-03-12T00:08:01.793Z,0.40
2023-03-12T00:10:34.407Z,0.50
2023-03-12T00:13:07.488Z,0.40
2023-03-12T00:15:39.763Z,0.30
2023-03-12T00:18:11.985Z,0.30
2023-03-12T00:20:44.299Z,0.00
2023-03-12T00:23:16.419Z,0.00
2023-03-12T00:25:48.871Z,0.00
2023-03-12T00:28:21.195Z,-0.10
2023-03-12T00:30:56.037Z,-0.10
2023-03-12T00:33:32.053Z,0.00
2023-03-12T00:36:04.505Z,0.00
2023-03-12T00:38:36.559Z,0.00
2023-03-12T00:41:08.639Z,0.00
2023-03-12T00:43:40.754Z,0.00
2023-03-12T00:46:13.379Z,0.00
2023-03-12T00:48:45.895Z,0.10
2023-03-12T00:51:18.113Z,0.10
2023-03-12T00:53:50.352Z,0.10
2023-03-12T00:56:22.399Z,0.20
2023-03-12T00:58:54.592Z,0.20
2023-03-12T01:01:27.793Z,0.30
2023-03-12T01:04:00.037Z,0.30
2023-03-12T01:06:32.913Z,0.30
2023-03-12T01:09:06.818Z,0.20
2023-03-12T01:11:39.134Z,0.20
2023-03-12T01:14:11.590Z,0.30
2023-03-12T01:16:43.885Z,0.20
2023-03-12T01:19:18.353Z,0.10
2023-03-12T01:21:50.525Z,0.00
2023-03-12T01:24:22.686Z,0.00
2023-03-12T01:26:54.952Z,0.10
2023-03-12T01:29:27.149Z,0.10
2023-03-12T01:31:59.615Z,0.10
2023-03-12T01:34:33.579Z,0.00
2023-03-12T01:37:07.359Z,0.10
2023-03-12T01:39:40.574Z,0.10
2023-03-12T01:42:13.358Z,0.10
2023-03-12T01:45:00.599Z,0.20
2023-03-12T01:47:35.702Z,0.20
2023-03-12T01:50:12.970Z,0.20
2023-03-12T01:52:45.277Z,0.20
2023-03-12T01:55:18.150Z,0.20
2023-03-12T01:57:57.089Z,0.20
2023-03-12T02:00:29.717Z,0.30
2023-03-12T02:03:08.965Z,0.20
2023-03-12T02:05:48.470Z,0.20
2023-03-12T02:08:23.378Z,0.30
2023-03-12T02:10:55.591Z,0.30
2023-03-12T02:13:28.233Z,0.30
2023-03-12T02:16:00.996Z,0.30
2023-03-12T02:18:35.623Z,0.30
2023-03-12T02:21:15.039Z,0.40
2023-03-12T02:24:13.000Z,0.40
2023-03-12T02:26:46.214Z,0.30
2023-03-12T02:29:18.959Z,0.30
2023-03-12T02:31:55.108Z,0.30
2023-03-12T02:34:27.606Z,0.40
2023-03-12T02:36:59.673Z,0.40
2023-03-12T02:39:31.946Z,0.40
2023-03-12T02:42:04.141Z,0.40
2023-03-12T02:44:38.050Z,0.30
2023-03-12T02:47:10.320Z,0.30
2023-03-12T02:49:42.719Z,0.30
2023-03-12T02:52:15.152Z,0.20
2023-03-12T02:54:47.820Z,0.30
2023-03-12T02:57:20.156Z,0.40
2023-03-12T02:59:52.614Z,0.40
2023-03-12T03:02:25.530Z,0.30
2023-03-12T03:04:57.903Z,0.40
2023-03-12T03:07:29.958Z,0.30
2023-03-12T03:10:04.539Z,0.40
2023-03-12T03:12:37.973Z,0.30
2023-03-12T03:15:11.745Z,0.30
2023-03-12T03:17:44.587Z,0.20
2023-03-12T03:20:16.993Z,0.20
2023-03-12T03:22:49.073Z,0.20
2023-03-12T03:25:23.650Z,0.30
2023-03-12T03:27:56.440Z,0.30
2023-03-12T03:30:28.695Z,0.30
2023-03-12T03:33:01.297Z,0.30
2023-03-12T03:35:36.838Z,0.40
2023-03-12T03:38:09.017Z,0.50
2023-03-12T03:40:45.749Z,0.50
2023-03-12T03:43:17.968Z,0.50
2023-03-12T03:46:00.041Z,0.60
2023-03-12T03:48:33.018Z,0.60
2023-03-12T03:51:07.094Z,0.50
2023-03-12T03:53:41.362Z,0.60
2023-03-12T03:56:16.104Z,0.70
2023-03-12T03:58:53.947Z,0.70
2023-03-12T04:01:27.742Z,0.70
2023-03-12T04:04:01.554Z,0.70
2023-03-12T04:06:35.529Z,0.70
2023-03-12T04:09:07.727Z,0.70
2023-03-12T04:11:41.647Z,0.80
2023-03-12T04:14:15.611Z,0.80
2023-03-12T04:16:49.982Z,0.80
2023-03-12T04:19:22.028Z,0.80
2023-03-12T04:21:54.439Z,0.80
2023-03-12T04:24:26.523Z,0.90
2023-03-12T04:26:59.593Z,0.90
2023-03-12T04:29:32.150Z,0.80
2023-03-12T04:32:05.392Z,0.80
2023-03-12T04:34:37.491Z,0.90
2023-03-12T04:37:13.894Z,0.90
2023-03-12T04:39:46.387Z,0.90
2023-03-12T04:42:19.936Z,1.00
2023-03-12T04:44:53.134Z,1.00
2023-03-12T04:47:25.606Z,1.00
2023-03-12T04:49:57.856Z,1.00
2023-03-12T04:52:30.569Z,1.10
2023-03-12T04:55:02.685Z,1.10
2023-03-12T04:57:35.117Z,1.10
2023-03-12T05:00:13.080Z,1.20
2023-03-12T05:02:45.577Z,1.20
2023-03-12T05:05:18.144Z,1.20
2023-03-12T05:07:50.456Z,1.30
2023-03-12T05:10:22.948Z,1.30
2023-03-12T05:12:57.050Z,1.30
2023-03-12T05:15:30.235Z,1.40
2023-03-12T05:18:03.127Z,1.40
2023-03-12T05:20:35.758Z,1.50
2023-03-12T05:23:08.134Z,1.50
2023-03-12T05:25:41.392Z,1.50
2023-03-12T05:28:13.782Z,1.50
2023-03-12T05:30:46.963Z,1.50
2023-03-12T05:33:19.401Z,1.50
2023-03-12T05:35:51.679Z,1.50
2023-03-12T05:38:23.767Z,1.50
2023-03-12T05:41:01.855Z,1.50
2023-03-12T05:43:37.212Z,1.50
2023-03-12T05:46:10.202Z,1.50
2023-03-12T05:48:43.007Z,1.50
2023-03-12T05:51:15.440Z,1.50
2023-03-12T05:53:47.615Z,1.50
2023-03-12T05:56:20.203Z,1.60
2023-03-12T05:58:53.204Z,1.60
2023-03-12T06:01:29.647Z,1.70
2023-03-12T06:04:03.954Z,1.70
2023-03-12T06:06:37.125Z,1.80
2023-03-12T06:09:10.084Z,1.70
2023-03-12T06:11:42.305Z,1.70
2023-03-12T06:14:14.897Z,1.70
2023-03-12T06:16:47.560Z,1.90
2023-03-12T06:19:19.887Z,1.90
2023-03-12T06:21:54.416Z,1.90
2023-03-12T06:24:26.577Z,1.90
2023-03-12T06:27:02.540Z,2.00
2023-03-12T06:29:34.768Z,2.10
2023-03-12T06:32:07.290Z,2.10
2023-03-12T06:34:39.377Z,2.10
2023-03-12T06:37:12.129Z,2.10
2023-03-12T06:39:44.150Z,2.20
2023-03-12T06:42:17.825Z,2.30
2023-03-12T06:44:50.450Z,2.30
2023-03-12T06:47:22.796Z,2.40
2023-03-12T06:49:54.855Z,2.50
2023-03-12T06:52:27.602Z,2.50
2023-03-12T06:54:59.799Z,2.60
2023-03-12T06:57:32.020Z,2.70
2023-03-12T07:00:05.408Z,2.80
2023-03-12T07:02:37.569Z,2.80
2023-03-12T07:05:10.506Z,2.80
2023-03-12T07:07:42.538Z,2.90
2023-03-12T07:10:14.618Z,2.90
2023-03-12T07:12:46.689Z,2.90
2023-03-12T07:15:19.176Z,2.90
2023-03-12T07:17:51.275Z,2.90
2023-03-12T07:20:23.433Z,2.90
2023-03-12T07:22:55.623Z,2.90
2023-03-12T07:25:28.217Z,3.00
2023-03-12T07:28:00.225Z,3.00
2023-03-12T07:30:33.870Z,3.10
2023-03-12T07:33:09.273Z,3.10
2023-03-12T07:35:41.822Z,3.00
2023-03-12T07:38:14.819Z,3.00
2023-03-12T07:40:55.121Z,3.10
2023-03-12T07:43:27.473Z,3.20
2023-03-12T07:46:00.356Z,3.20
2023-03-12T07:48:32.634Z,3.30
2023-03-12T07:51:05.085Z,3.30
2023-03-12T07:53:37.175Z,3.40
2023-03-12T07:56:09.905Z,3.40
2023-03-12T07:58:42.167Z,3.50
2023-03-12T08:01:14.362Z,3.60
2023-03-12T08:03:46.528Z,3.70
2023-03-12T08:06:18.780Z,3.70
2023-03-12T08:08:51.153Z,3.80
2023-03-12T08:11:23.451Z,3.80
2023-03-12T08:13:55.941Z,3.90
2023-03-12T08:16:28.089Z,4.00
2023-03-12T08:19:00.266Z,4.00
2023-03-12T08:21:32.361Z,4.00
2023-03-12T08:24:04.964Z,4.00
2023-03-12T08:26:37.057Z,4.10
2023-03-12T08:29:09.533Z,4.20
2023-03-12T08:31:53.694Z,4.30
2023-03-12T08:34:35.153Z,4.20
2023-03-12T08:37:07.266Z,4.20
2023-03-12T08:39:39.427Z,4.20
2023-03-12T08:42:11.564Z,4.30
2023-03-12T08:44:43.997Z,4.30
2023-03-12T08:47:16.485Z,4.30
2023-03-12T08:49:49.195Z,4.20
2023-03-12T08:52:21.187Z,4.20
2023-03-12T08:54:53.870Z,4.20
2023-03-12T08:57:26.117Z,4.20
2023-03-12T08:59:58.753Z,4.20
2023-03-12T09:02:30.928Z,4.10
2023-03-12T09:05:05.749Z,4.10
2023-03-12T09:07:38.527Z,4.20
2023-03-12T09:10:11.448Z,4.20
2023-03-12T09:12:44.959Z,4.20
2023-03-12T09:15:17.192Z,4.20
2023-03-12T09:17:51.189Z,4.20
2023-03-12T09:20:24.610Z,4.20
2023-03-12T09:22:56.743Z,4.20
2023-03-12T09:25:29.219Z,4.30
2023-03-12T09:28:02.838Z,4.40
2023-03-12T09:30:35.076Z,4.30
2023-03-12T09:33:07.417Z,4.40
2023-03-12T09:35:39.566Z,4.40
2023-03-12T09:38:15.734Z,4.30
2023-03-12T09:40:48.583Z,4.20
2023-03-12T09:43:34.379Z,4.10
2023-03-12T09:46:13.877Z,4.00
2023-03-12T09:48:47.677Z,3.90
2023-03-12T09:51:33.795Z,3.90
2023-03-12T09:54:13.454Z,3.90
2023-03-12T09:56:46.066Z,3.90
2023-03-12T09:59:18.901Z,3.90
2023-03-12T10:01:55.146Z,3.90
2023-03-12T10:04:52.309Z,3.90
2023-03-12T10:07:39.838Z,3.90
2023-03-12T10:10:33.374Z,3.80
2023-03-12T10:13:20.414Z,3.80
2023-03-12T10:16:25.793Z,3.70
2023-03-12T10:19:11.609Z,3.70
2023-03-12T10:22:02.331Z,3.60
2023-03-12T10:24:52.699Z,3.60
2023-03-12T10:27:29.944Z,3.70
2023-03-12T10:30:14.259Z,3.70
2023-03-12T10:32:50.840Z,3.70
2023-03-12T10:35:25.281Z,3.80
2023-03-12T10:38:00.496Z,3.90
2023-03-12T10:40:35.972Z,3.90
2023-03-12T10:43:09.920Z,3.90
2023-03-12T10:46:10.840Z,3.90
2023-03-12T10:48:43.555Z,3.70
2023-03-12T10:51:15.701Z,3.80
2023-03-12T10:53:48.272Z,3.60
2023-03-12T10:56:21.272Z,3.70
2023-03-12T10:58:54.350Z,3.80
2023-03-12T11:01:29.351Z,3.80
2023-03-12T11:04:18.325Z,3.80
2023-03-12T11:07:27.844Z,3.90
2023-03-12T11:10:09.257Z,3.90
2023-03-12T11:12:56.192Z,4.00
2023-03-12T11:15:32.601Z,4.10
2023-03-12T11:18:27.606Z,4.20
2023-03-12T11:21:15.369Z,4.20
2023-03-12T11:24:08.633Z,4.20
2023-03-12T11:26:57.667Z,4.20
2023-03-12T11:29:40.073Z,4.30
2023-03-12T11:32:36.369Z,4.30
2023-03-12T11:35:13.396Z,4.30
2023-03-12T11:37:45.437Z,4.40
2023-03-12T11:40:17.437Z,4.70
2023-03-12T11:43:12.380Z,4.90
2023-03-12T11:46:04.651Z,5.10
2023-03-12T11:48:45.881Z,5.30
2023-03-12T11:51:39.154Z,5.20
2023-03-12T11:54:30.345Z,5.20
2023-03-12T11:57:14.673Z,5.30
2023-03-12T11:59:54.609Z,5.40
2023-03-12T12:02:55.245Z,5.40
2023-03-12T12:05:38.987Z,5.40
2023-03-12T12:08:13.912Z,5.50
2023-03-12T12:10:55.532Z,5.70
2023-03-12T12:13:46.258Z,6.00
2023-03-12T12:16:29.174Z,6.20
2023-03-12T12:19:29.951Z,6.10
2023-03-12T12:22:26.664Z,6.10
2023-03-12T12:25:15.544Z,6.30
2023-03-12T12:28:12.175Z,6.20
2023-03-12T12:31:17.032Z,6.10
2023-03-12T12:33:58.509Z,6.20
2023-03-12T12:36:35.204Z,6.20
2023-03-12T12:39:13.467Z,6.30
2023-03-12T12:41:54.533Z,6.30
2023-03-12T12:44:43.809Z,6.20
2023-03-12T12:47:22.908Z,6.30
2023-03-12T12:49:58.301Z,6.30
2023-03-12T12:52:30.700Z,6.40
2023-03-12T12:55:30.940Z,6.40
2023-03-12T12:58:23.561Z,6.50
2023-03-12T13:01:02.034Z,6.50
2023-03-12T13:03:34.609Z,6.60
2023-03-12T13:06:07.700Z,6.70
2023-03-12T13:08:45.833Z,6.70
2023-03-12T13:11:20.604Z,6.80
2023-03-12T13:14:05.043Z,6.80
2023-03-12T13:16:39.679Z,6.90
2023-03-12T13:19:15.028Z,7.00
2023-03-12T13:21:56.874Z,7.10
2023-03-12T13:24:57.880Z,7.20
2023-03-12T13:27:36.455Z,7.30
2023-03-12T13:30:33.745Z,7.50
2023-03-12T13:33:11.805Z,7.60
2023-03-12T13:36:02.121Z,7.70
2023-03-12T13:38:37.401Z,7.70
2023-03-12T13:41:09.706Z,7.80
2023-03-12T13:43:49.727Z,7.80
2023-03-12T13:46:30.116Z,7.80
2023-03-12T13:49:09.899Z,7.90
2023-03-12T13:52:02.680Z,8.00
2023-03-12T13:54:35.726Z,8.10
2023-03-12T13:57:21.910Z,8.20
2023-03-12T13:59:56.568Z,8.20
2023-03-12T14:02:33.852Z,8.30
2023-03-12T14:05:10.802Z,8.40
2023-03-12T14:08:01.201Z,8.40
2023-03-12T14:10:53.768Z,8.40
2023-03-12T14:13:39.882Z,8.40
2023-03-12T14:16:46.126Z,8.50
2023-03-12T14:19:22.832Z,8.50
2023-03-12T14:21:59.895Z,8.60
2023-03-12T14:24:39.814Z,8.70
2023-03-12T14:27:17.798Z,8.80
2023-03-12T14:30:13.549Z,8.90
2023-03-12T14:32:48.394Z,9.00
2023-03-12T14:35:40.676Z,9.20
2023-03-12T14:38:28.304Z,9.40
2023-03-12T14:41:05.256Z,9.70
2023-03-12T14:43:37.610Z,10.70
2023-03-12T14:46:22.681Z,11.70
2023-03-12T14:48:55.260Z,11.10
2023-03-12T14:51:31.049Z,10.70
2023-03-12T14:54:03.876Z,10.30
2023-03-12T14:56:36.209Z,10.20
2023-03-12T14:59:25.318Z,10.20
2023-03-12T15:02:25.289Z,10.00
2023-03-12T15:05:00.517Z,10.00
2023-03-12T15:07:39.760Z,9.90
2023-03-12T15:10:25.833Z,9.80
2023-03-12T15:13:01.539Z,9.80
2023-03-12T15:15:40.280Z,9.70
2023-03-12T15:18:19.366Z,9.70
2023-03-12T15:20:54.086Z,9.70
2023-03-12T15:23:28.048Z,9.70
2023-03-12T15:26:28.977Z,9.70
2023-03-12T15:29:04.165Z,9.60
2023-03-12T15:31:47.904Z,9.70
2023-03-12T15:34:35.759Z,9.70
2023-03-12T15:37:38.217Z,9.50
2023-03-12T15:40:22.133Z,9.40
2023-03-12T15:42:57.730Z,9.40
2023-03-12T15:45:40.543Z,9.30
2023-03-12T15:48:19.159Z,9.30
2023-03-12T15:50:51.498Z,9.30
2023-03-12T15:53:28.968Z,9.30
2023-03-12T15:56:05.264Z,9.30
2023-03-12T15:58:40.497Z,9.20
2023-03-12T16:01:28.131Z,9.20
2023-03-12T16:04:00.342Z,9.30
2023-03-12T16:06:32.464Z,9.30
2023-03-12T16:09:05.057Z,9.20
2023-03-12T16:11:37.482Z,9.20
2023-03-12T16:14:33.051Z,9.30
2023-03-12T16:17:06.181Z,9.20
2023-03-12T16:19:38.721Z,9.20
2023-03-12T16:22:10.927Z,9.20
2023-03-12T16:24:43.273Z,9.20
2023-03-12T16:27:23.667Z,9.10
2023-03-12T16:30:13.269Z,9.20
2023-03-12T16:32:45.867Z,9.10
2023-03-12T16:35:20.164Z,9.10
2023-03-12T16:37:52.572Z,9.10
2023-03-12T16:40:33.468Z,9.10
2023-03-12T16:43:11.724Z,9.00
2023-03-12T16:45:47.300Z,9.00
2023-03-12T16:48:24.412Z,9.00
2023-03-12T16:50:59.083Z,9.10
2023-03-12T16:53:37.678Z,9.00
2023-03-12T16:56:18.224Z,9.00
2023-03-12T16:58:51.350Z,8.90
2023-03-12T17:01:26.859Z,8.90
2023-03-12T17:03:59.168Z,8.90
2023-03-12T17:06:31.343Z,8.90
2023-03-12T17:09:03.630Z,9.00
2023-03-12T17:11:38.073Z,8.90
2023-03-12T17:14:20.120Z,8.90
2023-03-12T17:16:52.735Z,8.90
2023-03-12T17:19:24.969Z,8.80
2023-03-12T17:21:57.646Z,8.80
2023-03-12T17:24:29.841Z,8.80
2023-03-12T17:27:02.091Z,8.60
2023-03-12T17:29:34.127Z,8.60
2023-03-12T17:32:07.383Z,8.50
2023-03-12T17:34:39.726Z,8.60
2023-03-12T17:37:11.972Z,8.50
2023-03-12T17:39:44.053Z,8.50
2023-03-12T17:42:16.580Z,8.50
2023-03-12T17:44:49.165Z,8.60
2023-03-12T17:47:21.480Z,8.50
2023-03-12T17:49:53.568Z,8.50
2023-03-12T17:52:25.852Z,8.50
2023-03-12T17:54:58.389Z,8.50
2023-03-12T17:57:30.520Z,8.40
2023-03-12T18:00:04.245Z,8.40
2023-03-12T18:02:44.467Z,8.40
2023-03-12T18:05:17.157Z,8.40
2023-03-12T18:07:50.703Z,8.40
2023-03-12T18:10:22.872Z,8.40
2023-03-12T18:12:54.934Z,8.40
2023-03-12T18:15:26.988Z,8.40
2023-03-12T18:17:59.789Z,8.40
2023-03-12T18:20:39.206Z,8.40
2023-03-12T18:23:12.156Z,8.40
2023-03-12T18:25:46.127Z,8.30
2023-03-12T18:28:18.168Z,8.40
2023-03-12T18:30:50.587Z,8.20
2023-03-12T18:33:22.910Z,8.30
2023-03-12T18:35:55.319Z,8.30
2023-03-12T18:38:28.758Z,8.20
2023-03-12T18:41:10.983Z,8.20
2023-03-12T18:43:43.349Z,8.20
2023-03-12T18:46:16.052Z,8.20
2023-03-12T18:48:48.330Z,8.20
2023-03-12T18:51:20.672Z,8.30
2023-03-12T18:53:52.850Z,8.10
2023-03-12T18:56:25.116Z,8.10
2023-03-12T18:58:57.190Z,8.00
2023-03-12T19:01:29.455Z,8.00
2023-03-12T19:04:01.562Z,7.90
2023-03-12T19:06:49.528Z,7.90
2023-03-12T19:09:22.594Z,7.90
2023-03-12T19:11:54.900Z,7.90
2023-03-12T19:14:27.492Z,7.90
2023-03-12T19:16:59.568Z,8.00
2023-03-12T19:19:31.544Z,7.90
2023-03-12T19:22:04.918Z,8.00
2023-03-12T19:24:37.091Z,8.00
2023-03-12T19:27:10.179Z,8.00
2023-03-12T19:29:42.607Z,8.10
2023-03-12T19:32:14.980Z,8.00
2023-03-12T19:34:51.756Z,7.90
2023-03-12T19:37:24.469Z,8.00
2023-03-12T19:39:56.932Z,7.90
2023-03-12T19:42:29.257Z,8.00
2023-03-12T19:45:01.570Z,8.00
2023-03-12T19:47:34.031Z,7.90
2023-03-12T19:50:07.458Z,7.80
2023-03-12T19:52:39.794Z,7.90
2023-03-12T19:55:12.601Z,7.90
2023-03-12T19:57:44.769Z,7.90
2023-03-12T20:00:17.417Z,7.90
2023-03-12T20:02:50.092Z,7.80
2023-03-12T20:05:22.506Z,7.80
2023-03-12T20:07:54.700Z,7.70
2023-03-12T20:10:29.051Z,7.70
2023-03-12T20:13:01.063Z,7.70
2023-03-12T20:15:33.282Z,7.70
2023-03-12T20:18:05.893Z,7.70
2023-03-12T20:20:38.043Z,7.70
2023-03-12T20:23:10.181Z,7.70
2023-03-12T20:25:42.863Z,7.70
2023-03-12T20:28:15.063Z,7.70
2023-03-12T20:30:51.727Z,7.60
2023-03-12T20:33:23.769Z,7.60
2023-03-12T20:35:56.257Z,7.60
2023-03-12T20:38:28.464Z,7.60
2023-03-12T20:41:00.581Z,7.60
2023-03-12T20:43:34.521Z,7.50
2023-03-12T20:46:06.850Z,7.50
2023-03-12T20:48:39.265Z,7.50
2023-03-12T20:51:11.309Z,7.50
2023-03-12T20:53:44.714Z,7.50
2023-03-12T20:56:16.887Z,7.50
2023-03-12T20:58:48.973Z,7.50
2023-03-12T21:01:21.377Z,7.50
2023-03-12T21:03:59.444Z,7.60
2023-03-12T21:06:32.162Z,7.70
2023-03-12T21:09:04.629Z,7.70
2023-03-12T21:11:39.033Z,7.60
2023-03-12T21:14:11.044Z,7.60
2023-03-12T21:16:43.159Z,7.60
2023-03-12T21:19:15.259Z,7.60
2023-03-12T21:21:47.400Z,7.60
2023-03-12T21:24:19.878Z,7.70
2023-03-12T21:26:51.949Z,7.60
2023-03-12T21:29:24.398Z,7.50
2023-03-12T21:31:57.520Z,7.40
2023-03-12T21:34:30.657Z,7.30
2023-03-12T21:37:02.757Z,7.10
2023-03-12T21:39:35.395Z,7.00
2023-03-12T21:42:07.549Z,7.10
2023-03-12T21:44:40.062Z,7.20
2023-03-12T21:47:12.426Z,7.20
2023-03-12T21:49:45.117Z,7.20
2023-03-12T21:52:17.300Z,7.30
2023-03-12T21:54:49.788Z,7.20
2023-03-12T21:57:21.945Z,7.10
2023-03-12T21:59:54.556Z,7.10
2023-03-12T22:02:28.094Z,7.10
2023-03-12T22:05:01.283Z,7.10
2023-03-12T22:07:33.379Z,7.10
2023-03-12T22:10:07.377Z,7.10
2023-03-12T22:12:40.184Z,7.00
2023-03-12T22:15:12.541Z,7.00
2023-03-12T22:17:44.597Z,7.00
2023-03-12T22:20:17.043Z,7.00
2023-03-12T22:22:49.152Z,6.90
2023-03-12T22:25:21.316Z,6.80
2023-03-12T22:27:53.423Z,6.70
2023-03-12T22:30:25.490Z,6.80
2023-03-12T22:32:57.937Z,6.80
2023-03-12T22:35:30.081Z,6.80
2023-03-12T22:38:02.046Z,6.70
2023-03-12T22:40:34.312Z,6.70
2023-03-12T22:43:06.883Z,6.70
2023-03-12T22:45:39.269Z,6.60
2023-03-12T22:48:11.660Z,6.60
2023-03-12T22:50:43.697Z,6.50
2023-03-12T22:53:24.569Z,6.50
2023-03-12T22:56:01.824Z,6.50
2023-03-12T22:58:34.335Z,6.50
2023-03-12T23:01:14.255Z,6.50
2023-03-12T23:03:47.490Z,6.50
2023-03-12T23:06:26.049Z,6.50
2023-03-12T23:08:58.965Z,6.50
2023-03-12T23:11:31.229Z,6.40
2023-03-12T23:14:03.621Z,6.40
2023-03-12T23:16:35.863Z,6.40
2023-03-12T23:19:07.878Z,6.40
2023-03-12T23:21:42.185Z,6.40
2023-03-12T23:24:14.536Z,6.40
2023-03-12T23:26:46.964Z,6.40
2023-03-12T23:29:19.109Z,6.40
2023-03-12T23:31:51.138Z,6.40
2023-03-12T23:34:23.244Z,6.40
2023-03-12T23:36:55.312Z,6.40
2023-03-12T23:39:30.470Z,6.40
2023-03-12T23:42:02.583Z,6.30
2023-03-12T23:44:34.647Z,6.30
2023-03-12T23:47:06.830Z,6.30
2023-03-12T23:49:38.781Z,6.20
2023-03-12T23:52:11.090Z,6.30
2023-03-12T23:54:43.276Z,6.20
2023-03-12T23:57:15.257Z,6.20
2023-03-12T23:59:47.293Z,6.20
